createdAt,value
2019-04-23T00:00:23.556Z,98455.98
2019-04-23T00:02:58.865Z,98446.25
2019-04-23T00:10:51.520Z,98436.68
2019-04-23T00:13:05.428Z,98443.28
2019-04-23T00:15:44.755Z,98436.63
2019-04-23T00:18:12.186Z,98443.73
2019-04-23T00:20:40.753Z,98433.41
2019-04-23T00:23:16.416Z,98441.11
2019-04-23T00:25:53.679Z,98434.62
2019-04-23T00:28:45.734Z,98431.26
2019-04-23T00:30:56.671Z,98428.64
2019-04-23T00:35:55.244Z,98426.22
2019-04-23T00:38:35.194Z,98422.48
2019-04-23T00:41:02.967Z,98422.87
2019-04-23T00:43:37.730Z,98417.50
2019-04-23T00:46:02.408Z,98416.95
2019-04-23T00:51:03.549Z,98413.00
2019-04-23T00:53:32.670Z,98410.48
2019-04-23T00:56:26.346Z,98414.66
2019-04-23T01:01:11.547Z,98414.07
2019-04-23T01:03:50.404Z,98413.28
2019-04-23T01:06:21.096Z,98405.28
2019-04-23T01:08:50.693Z,98399.36
2019-04-23T01:13:50.942Z,98397.64
2019-04-23T01:19:00.979Z,98394.52
2019-04-23T01:21:13.848Z,98392.25
2019-04-23T01:23:53.808Z,98391.59
2019-04-23T01:26:38.836Z,98388.84
2019-04-23T01:29:14.734Z,98388.20
2019-04-23T01:31:47.499Z,98383.91
2019-04-23T01:34:19.710Z,98379.70
2019-04-23T01:36:43.853Z,98376.17
2019-04-23T01:39:19.356Z,98377.47
2019-04-23T01:41:58.086Z,98374.64
2019-04-23T01:44:34.230Z,98382.86
2019-04-23T01:46:54.299Z,98376.08
2019-04-23T01:49:31.008Z,98380.30
2019-04-23T01:54:34.974Z,98372.27
2019-04-23T01:56:56.235Z,98368.21
2019-04-23T01:59:33.481Z,98364.50
2019-04-23T02:02:05.142Z,98366.12
2019-04-23T02:04:39.621Z,98369.70
2019-04-23T02:07:06.462Z,98368.00
2019-04-23T02:09:45.725Z,98362.58
2019-04-23T02:12:11.505Z,98362.72
2019-04-23T02:14:44.778Z,98353.08
2019-04-23T02:17:10.541Z,98355.31
2019-04-23T02:19:47.571Z,98343.72
2019-04-23T02:22:34.357Z,98344.60
2019-04-23T02:25:25.143Z,98338.30
2019-04-23T02:27:54.377Z,98335.73
2019-04-23T02:30:40.634Z,98337.88
2019-04-23T02:33:27.391Z,98335.69
2019-04-23T02:35:50.120Z,98330.87
2019-04-23T02:40:38.123Z,98323.57
2019-04-23T02:43:09.422Z,98320.24
2019-04-23T02:45:39.897Z,98316.03
2019-04-23T02:48:10.432Z,98316.50
2019-04-23T02:50:49.185Z,98314.50
2019-04-23T02:53:27.795Z,98299.41
2019-04-23T02:55:42.782Z,98298.59
2019-04-23T02:58:22.137Z,98303.71
2019-04-23T03:00:55.650Z,98301.36
2019-04-23T03:03:15.189Z,98293.31
2019-04-23T03:05:49.361Z,98297.11
2019-04-23T03:08:18.537Z,98299.56
2019-04-23T03:10:53.366Z,98294.83
2019-04-23T03:13:32.127Z,98295.00
2019-04-23T03:16:00.986Z,98292.35
2019-04-23T03:24:04.490Z,98295.88
2019-04-23T03:28:57.602Z,98289.23
2019-04-23T03:37:02.501Z,98285.78
2019-04-23T03:38:54.313Z,98288.69
2019-04-23T03:46:44.113Z,98281.67
2019-04-23T03:48:57.324Z,98280.91
2019-04-23T03:51:43.505Z,98281.04
2019-04-23T03:59:12.574Z,98274.44
2019-04-23T04:12:04.243Z,98278.45
2019-04-23T04:17:09.450Z,98267.52
2019-04-23T04:19:44.833Z,98268.67
2019-04-23T04:22:21.502Z,98272.41
2019-04-23T04:24:39.930Z,98265.78
2019-04-23T04:32:03.628Z,98266.94
2019-04-23T04:37:34.572Z,98256.66
2019-04-23T04:39:56.437Z,98261.45
2019-04-23T04:44:47.767Z,98258.38
2019-04-23T04:47:32.439Z,98247.43
2019-04-23T04:49:55.662Z,98256.44
2019-04-23T04:54:51.957Z,98249.05
2019-04-23T05:02:39.138Z,98237.61
2019-04-23T05:12:43.846Z,98240.09
2019-04-23T05:15:04.612Z,98230.93
2019-04-23T05:17:57.283Z,98231.50
2019-04-23T05:22:59.525Z,98226.22
2019-04-23T05:25:12.302Z,98230.70
2019-04-23T05:27:55.315Z,98225.66
2019-04-23T05:30:23.000Z,98220.47
2019-04-23T05:32:54.169Z,98223.48
2019-04-23T05:35:42.491Z,98221.97
2019-04-23T05:40:30.612Z,98224.88
2019-04-23T05:42:53.319Z,98218.38
2019-04-23T05:45:30.175Z,98214.24
2019-04-23T05:48:06.789Z,98216.44
2019-04-23T05:50:52.688Z,98209.61
2019-04-23T05:53:09.926Z,98208.50
2019-04-23T05:55:39.806Z,98209.77
2019-04-23T05:58:08.871Z,98213.11
2019-04-23T06:00:45.802Z,98203.78
2019-04-23T06:05:46.568Z,98201.83
2019-04-23T06:08:18.740Z,98204.55
2019-04-23T06:13:31.592Z,98208.84
2019-04-23T06:15:52.070Z,98204.31
2019-04-23T06:20:55.879Z,98204.88
2019-04-23T06:23:37.650Z,98196.19
2019-04-23T06:26:10.107Z,98199.35
2019-04-23T06:28:27.016Z,98196.64
2019-04-23T06:31:04.668Z,98200.64
2019-04-23T06:33:35.878Z,98198.73
2019-04-23T06:36:05.543Z,98194.67
2019-04-23T06:38:53.760Z,98189.17
2019-04-23T06:41:13.078Z,98186.70
2019-04-23T06:43:42.039Z,98185.05
2019-04-23T06:46:11.867Z,98179.61
2019-04-23T06:48:45.467Z,98184.55
2019-04-23T06:53:48.632Z,98186.00
2019-04-23T06:56:21.001Z,98175.29
2019-04-23T06:58:43.179Z,98184.00
2019-04-23T07:01:22.151Z,98174.89
2019-04-23T07:03:50.311Z,98177.31
2019-04-23T07:06:26.704Z,98171.17
2019-04-23T07:11:29.055Z,98167.30
2019-04-23T07:16:21.478Z,98165.52
2019-04-23T07:18:59.116Z,98166.37
2019-04-23T07:21:21.968Z,98160.92
2019-04-23T07:24:05.391Z,98158.58
2019-04-23T07:31:35.115Z,98155.92
2019-04-23T07:34:01.979Z,98152.73
2019-04-23T07:36:35.572Z,98150.36
2019-04-23T07:41:56.847Z,98143.41
2019-04-23T07:44:29.726Z,98147.11
2019-04-23T07:47:11.333Z,98146.05
2019-04-23T07:49:30.513Z,98139.31
2019-04-23T07:52:03.711Z,98142.58
2019-04-23T07:54:29.002Z,98134.17
2019-04-23T07:57:11.672Z,98129.44
2019-04-23T07:59:36.839Z,98123.72
2019-04-23T08:02:06.112Z,98122.69
2019-04-23T08:04:42.610Z,98134.39
2019-04-23T08:07:06.619Z,98118.73
2019-04-23T08:09:43.014Z,98112.81
2019-04-23T08:12:19.209Z,98119.05
2019-04-23T08:14:49.667Z,98114.27
2019-04-23T08:17:10.846Z,98113.08
2019-04-23T08:27:34.851Z,98115.02
2019-04-23T08:30:06.233Z,98125.91
2019-04-23T08:32:45.185Z,98105.08
2019-04-23T08:35:27.044Z,98100.97
2019-04-23T08:40:15.024Z,98099.11
2019-04-23T08:45:22.627Z,98090.66
2019-04-23T08:48:09.271Z,98088.94
2019-04-23T08:53:17.828Z,98098.84
2019-04-23T08:55:44.163Z,98088.13
2019-04-23T08:58:17.112Z,98084.81
2019-04-23T09:00:45.490Z,98080.69
2019-04-23T09:03:21.997Z,98087.02
2019-04-23T09:11:03.193Z,98081.00
2019-04-23T09:18:21.418Z,98075.34
2019-04-23T09:20:52.917Z,98069.61
2019-04-23T09:23:34.671Z,98081.77
2019-04-23T09:31:02.882Z,98066.66
2019-04-23T09:33:46.378Z,98061.08
2019-04-23T09:39:10.105Z,98068.23
2019-04-23T09:41:38.136Z,98049.80
2019-04-23T09:44:45.643Z,98059.27
2019-04-23T09:47:00.700Z,98038.84
2019-04-23T09:49:33.232Z,98041.50
2019-04-23T09:52:11.191Z,98044.25
2019-04-23T09:54:42.140Z,98044.13
2019-04-23T09:57:04.624Z,98046.53
2019-04-23T10:02:01.378Z,98037.66
2019-04-23T10:04:28.528Z,98044.83
2019-04-23T10:06:58.688Z,98035.56
2019-04-23T10:09:16.718Z,98038.78
2019-04-23T10:11:47.244Z,98037.09
2019-04-23T10:14:18.334Z,98044.86
2019-04-23T10:16:49.378Z,98039.27
2019-04-23T10:19:19.028Z,98049.49
2019-04-23T10:21:49.249Z,98035.86
2019-04-23T10:24:19.329Z,98040.41
2019-04-23T10:26:50.386Z,98035.98
2019-04-23T10:29:21.549Z,98035.88
2019-04-23T10:31:51.461Z,98047.08
2019-04-23T10:34:21.215Z,98036.19
2019-04-23T10:36:51.544Z,98043.41
2019-04-23T10:39:25.600Z,98030.11
2019-04-23T10:41:54.883Z,98038.17
2019-04-23T10:44:30.326Z,98038.27
2019-04-23T10:50:18.538Z,98042.56
2019-04-23T10:52:37.636Z,98038.34
2019-04-23T10:55:12.122Z,98033.18
2019-04-23T10:57:40.992Z,98024.84
2019-04-23T11:00:17.326Z,98037.66
2019-04-23T11:03:11.977Z,98034.46
2019-04-23T11:05:47.407Z,98041.23
2019-04-23T11:07:44.041Z,98030.72
2019-04-23T11:13:09.314Z,98024.47
2019-04-23T11:18:09.001Z,98016.85
2019-04-23T11:20:45.210Z,98017.45
2019-04-23T11:23:29.376Z,97998.47
2019-04-23T11:25:57.801Z,98007.98
2019-04-23T11:31:03.183Z,98000.09
2019-04-23T11:33:40.304Z,97998.52
2019-04-23T11:36:35.545Z,97995.94
2019-04-23T11:41:19.289Z,97999.72
2019-04-23T11:43:43.590Z,97988.25
2019-04-23T11:46:39.827Z,97999.33
2019-04-23T11:49:20.312Z,98000.75
2019-04-23T11:51:49.007Z,97996.16
2019-04-23T11:56:35.438Z,97993.84
2019-04-23T12:04:05.002Z,97992.68
2019-04-23T12:06:39.046Z,98002.29
2019-04-23T12:09:33.756Z,98002.50
2019-04-23T12:12:02.384Z,97997.33
2019-04-23T12:14:40.491Z,97998.05
2019-04-23T12:17:20.293Z,97994.75
2019-04-23T12:22:17.968Z,97984.83
2019-04-23T12:25:03.458Z,97980.89
2019-04-23T12:27:25.926Z,97976.30
2019-04-23T12:29:47.543Z,97975.76
2019-04-23T12:35:04.313Z,98003.27
2019-04-23T12:37:36.355Z,97990.47
2019-04-23T12:40:06.051Z,97978.47
2019-04-23T12:50:42.214Z,97977.50
2019-04-23T12:52:51.200Z,97969.70
2019-04-23T12:55:27.904Z,97967.84
2019-04-23T13:00:30.814Z,97963.67
2019-04-23T13:02:55.514Z,97962.47
2019-04-23T13:05:27.006Z,97964.88
2019-04-23T13:08:02.045Z,97970.31
2019-04-23T13:10:35.549Z,97956.91
2019-04-23T13:15:34.351Z,97958.20
2019-04-23T13:20:51.412Z,97956.61
2019-04-23T13:25:58.265Z,97950.28
2019-04-23T13:28:35.361Z,97939.79
2019-04-23T13:31:08.392Z,97941.05
2019-04-23T13:33:40.528Z,97940.61
2019-04-23T13:41:17.333Z,97929.30
2019-04-23T13:48:42.319Z,97931.49
2019-04-23T13:53:59.289Z,97919.02
2019-04-23T13:56:24.520Z,97923.67
2019-04-23T13:58:53.163Z,97927.47
2019-04-23T14:01:25.404Z,97925.05
2019-04-23T14:03:59.563Z,97919.14
2019-04-23T14:08:59.780Z,97915.08
2019-04-23T14:14:14.478Z,97907.69
2019-04-23T14:16:35.845Z,97924.62
2019-04-23T14:21:35.250Z,97913.36
2019-04-23T14:26:35.155Z,97910.02
2019-04-23T14:29:04.423Z,97900.30
2019-04-23T14:31:35.955Z,97897.88
2019-04-23T14:36:42.558Z,97899.27
2019-04-23T14:39:10.122Z,97902.98
2019-04-23T14:41:42.569Z,97892.41
2019-04-23T14:44:23.787Z,97893.18
2019-04-23T14:47:23.954Z,97900.51
2019-04-23T14:49:36.078Z,97899.95
2019-04-23T14:55:18.015Z,97902.45
2019-04-23T14:57:20.305Z,97899.47
2019-04-23T14:59:41.686Z,97898.50
2019-04-23T15:02:18.414Z,97900.64
2019-04-23T15:04:43.806Z,97892.52
2019-04-23T15:07:16.844Z,97898.36
2019-04-23T15:09:52.857Z,97884.03
2019-04-23T15:12:27.755Z,97883.14
2019-04-23T15:14:56.265Z,97874.20
2019-04-23T15:17:22.183Z,97880.13
2019-04-23T15:25:01.338Z,97871.62
2019-04-23T15:29:48.252Z,97877.50
2019-04-23T15:32:37.662Z,97862.59
2019-04-23T15:35:13.317Z,97866.34
2019-04-23T15:45:07.971Z,97849.52
2019-04-23T15:47:45.347Z,97854.83
2019-04-23T15:52:48.396Z,97846.49
2019-04-23T15:55:05.714Z,97850.20
2019-04-23T16:00:15.774Z,97845.77
2019-04-23T16:02:16.987Z,97846.53
2019-04-23T16:04:47.220Z,97842.59
2019-04-23T16:07:34.011Z,97843.23
2019-04-23T16:10:26.121Z,97842.92
2019-04-23T16:12:54.707Z,97839.79
2019-04-23T16:15:19.718Z,97841.53
2019-04-23T16:17:50.278Z,97846.36
2019-04-23T16:20:33.393Z,97841.89
2019-04-23T16:22:50.899Z,97842.91
2019-04-23T16:25:20.306Z,97837.84
2019-04-23T16:28:05.404Z,97846.05
2019-04-23T16:30:36.457Z,97842.14
2019-04-23T16:41:17.814Z,97836.84
2019-04-23T16:43:49.297Z,97837.16
2019-04-23T16:46:17.814Z,97836.71
2019-04-23T16:53:44.692Z,97834.55
2019-04-23T16:56:25.836Z,97831.98
2019-04-23T16:59:00.058Z,97828.74
2019-04-23T17:01:37.623Z,97827.66
2019-04-23T17:04:00.702Z,97829.45
2019-04-23T17:06:36.718Z,97821.48
2019-04-23T17:09:09.989Z,97823.05
2019-04-23T17:11:41.785Z,97826.63
2019-04-23T17:14:13.465Z,97825.34
2019-04-23T17:16:38.285Z,97823.49
2019-04-23T17:19:16.467Z,97826.06
2019-04-23T17:26:54.237Z,97822.41
2019-04-23T17:29:28.295Z,97818.67
2019-04-23T17:31:45.442Z,97823.54
2019-04-23T17:34:30.207Z,97815.09
2019-04-23T17:37:07.399Z,97822.78
2019-04-23T17:39:33.645Z,97825.56
2019-04-23T17:47:22.430Z,97829.72
2019-04-23T17:50:03.423Z,97836.20
2019-04-23T17:54:59.390Z,97843.48
2019-04-23T17:57:26.388Z,97842.65
2019-04-23T18:02:51.789Z,97844.30
2019-04-23T18:05:11.163Z,97845.31
2019-04-23T18:10:24.795Z,97845.34
2019-04-23T18:15:15.792Z,97851.00
2019-04-23T18:17:43.344Z,97847.13
2019-04-23T18:20:16.714Z,97854.33
2019-04-23T18:22:56.863Z,97855.48
2019-04-23T18:25:36.879Z,97858.83
2019-04-23T18:28:00.121Z,97858.50
2019-04-23T18:30:59.590Z,97859.41
2019-04-23T18:34:00.630Z,97859.13
2019-04-23T18:36:05.351Z,97860.20
2019-04-23T18:43:48.336Z,97860.33
2019-04-23T18:46:14.925Z,97864.91
2019-04-23T18:56:15.390Z,97864.29
2019-04-23T18:58:54.666Z,97867.70
2019-04-23T19:01:22.952Z,97868.41
2019-04-23T19:06:51.217Z,97872.70
2019-04-23T19:09:47.479Z,97868.92
2019-04-23T19:15:04.099Z,97878.44
2019-04-23T19:20:00.567Z,97884.09
2019-04-23T19:22:48.082Z,97891.81
2019-04-23T19:25:07.078Z,97884.89
2019-04-23T19:27:38.602Z,97885.88
2019-04-23T19:30:03.387Z,97885.16
2019-04-23T19:32:43.773Z,97886.55
2019-04-23T19:35:23.460Z,97890.80
2019-04-23T19:40:11.979Z,97889.00
2019-04-23T19:42:52.364Z,97887.38
2019-04-23T19:45:24.700Z,97886.15
2019-04-23T19:47:58.550Z,97884.09
2019-04-23T19:50:23.982Z,97886.35
2019-04-23T19:55:24.231Z,97882.59
2019-04-23T20:00:28.546Z,97885.28
2019-04-23T20:03:13.650Z,97890.66
2019-04-23T20:05:30.848Z,97897.99
2019-04-23T20:10:39.544Z,97901.54
2019-04-23T20:13:05.145Z,97902.30
2019-04-23T20:16:01.172Z,97902.73
2019-04-23T20:18:17.367Z,97897.66
2019-04-23T20:20:51.407Z,97894.27
2019-04-23T20:23:24.905Z,97895.59
2019-04-23T20:26:12.161Z,97887.84
2019-04-23T20:28:52.403Z,97888.80
2019-04-23T20:31:55.240Z,97886.94
2019-04-23T20:36:29.920Z,97889.21
2019-04-23T20:38:59.302Z,97884.70
2019-04-23T20:41:55.123Z,97884.80
2019-04-23T20:44:28.208Z,97881.08
2019-04-23T20:46:54.258Z,97879.36
2019-04-23T20:49:23.649Z,97878.72
2019-04-23T20:51:57.646Z,97878.84
2019-04-23T20:54:35.493Z,97886.66
2019-04-23T20:57:19.294Z,97885.32
2019-04-23T20:59:49.913Z,97878.59
2019-04-23T21:02:28.359Z,97884.92
2019-04-23T21:04:57.287Z,97884.78
2019-04-23T21:07:31.579Z,97882.55
2019-04-23T21:10:01.062Z,97882.05
2019-04-23T21:12:27.833Z,97889.63
2019-04-23T21:17:24.778Z,97891.19
2019-04-23T21:25:00.302Z,97897.39
2019-04-23T21:28:06.357Z,97899.70
2019-04-23T21:38:56.892Z,97902.66
2019-04-23T21:41:49.986Z,97904.56
2019-04-23T21:46:28.221Z,97906.05
2019-04-23T21:49:09.421Z,97901.94
2019-04-23T21:51:41.451Z,97901.83
2019-04-23T21:56:33.111Z,97911.95
2019-04-23T22:01:36.669Z,97912.19
2019-04-23T22:06:46.105Z,97912.23
2019-04-23T22:14:27.546Z,97911.67
2019-04-23T22:16:49.897Z,97916.20
2019-04-23T22:19:17.070Z,97920.20
2019-04-23T22:21:50.291Z,97915.26
2019-04-23T22:24:27.598Z,97920.41
2019-04-23T22:26:50.621Z,97920.39
2019-04-23T22:34:33.943Z,97922.89
2019-04-23T22:37:04.571Z,97924.83
2019-04-23T22:39:54.122Z,97920.34
2019-04-23T22:42:36.278Z,97923.88
2019-04-23T22:45:00.486Z,97928.66
2019-04-23T22:47:15.548Z,97927.95
2019-04-23T22:52:22.892Z,97926.22
2019-04-23T22:57:45.457Z,97926.95
2019-04-23T23:00:12.933Z,97924.73
2019-04-23T23:05:39.807Z,97930.83
2019-04-23T23:08:01.624Z,97932.65
2019-04-23T23:15:30.550Z,97936.17
2019-04-23T23:18:07.331Z,97932.94
2019-04-23T23:20:32.720Z,97937.80
2019-04-23T23:23:13.206Z,97940.32
2019-04-23T23:25:34.880Z,97932.09
2019-04-23T23:28:15.063Z,97933.85
2019-04-23T23:30:45.237Z,97927.45
2019-04-23T23:33:12.882Z,97929.69
2019-04-23T23:36:00.182Z,97933.38
2019-04-23T23:38:21.537Z,97939.81
2019-04-23T23:40:47.257Z,97938.91
2019-04-23T23:45:57.250Z,97942.81
2019-04-23T23:50:57.034Z,97940.63
2019-04-23T23:55:58.252Z,97947.02
2019-04-23T23:58:36.135Z,97943.17
